Time;durP1;ratioP1;P1;durP2;ratioP2;P2;SDS_P1;SDS_P2;PMS_P1;PMS_P2;Temp;Humidity;BMP_temperature;BMP_pressure;BME280_temperature;BME280_humidity;BME280_pressure;Samples;Min_cycle;Max_cycle;Signal;HPM_P1;HPM_P2
2024/04/12 00:00:21;;;;;;;31.25;20.90;;;;;;;12.79;100.00;102972.91;10783856;26;20005;-70
2024/04/12 00:05:20;;;;;;;33.10;21.13;;;;;;;12.78;100.00;102964.94;10801823;26;20006;-70
2024/04/12 00:10:17;;;;;;;39.08;21.90;;;;;;;12.78;100.00;102964.94;10780459;26;20695;-69
2024/04/12 00:15:21;;;;;;;31.27;20.85;;;;;;;12.83;100.00;102960.28;10797481;26;20358;-70
2024/04/12 00:20:20;;;;;;;31.85;20.45;;;;;;;12.76;100.00;102956.16;10840646;26;20010;-69
2024/04/12 00:25:18;;;;;;;31.58;18.65;;;;;;;12.72;100.00;102950.41;10783921;26;19998;-69
2024/04/12 00:30:37;;;;;;;25.15;17.63;;;;;;;12.74;100.00;102959.19;10764077;26;20021;-69
2024/04/12 00:35:34;;;;;;;23.63;15.45;;;;;;;12.70;100.00;102944.38;10793424;26;20800;-69
2024/04/12 00:40:32;;;;;;;26.05;16.00;;;;;;;12.61;100.00;102948.78;10790610;26;20037;-69
2024/04/12 00:45:39;;;;;;;25.90;15.73;;;;;;;12.67;100.00;102942.19;10789185;26;20083;-69
2024/04/12 00:50:43;;;;;;;23.75;15.93;;;;;;;12.63;100.00;102941.09;10835170;26;20002;-69
2024/04/12 00:55:40;;;;;;;23.85;16.10;;;;;;;12.60;100.00;102937.00;10792593;26;20016;-69
2024/04/12 01:00:46;;;;;;;24.75;15.10;;;;;;;12.57;100.00;102931.22;10806839;26;20023;-69
2024/04/12 01:05:44;;;;;;;26.45;15.40;;;;;;;12.53;100.00;102935.59;10851067;26;20813;-71
2024/04/12 01:10:44;;;;;;;23.40;15.02;;;;;;;12.54;100.00;102937.28;10876912;26;20341;-70
2024/04/12 01:15:43;;;;;;;25.55;15.55;;;;;;;12.45;100.00;102927.94;10844369;26;20353;-71
2024/04/12 01:20:40;;;;;;;25.40;15.10;;;;;;;12.37;100.00;102930.16;10844075;26;20088;-70
2024/04/12 01:25:38;;;;;;;23.10;14.45;;;;;;;12.36;100.00;102914.78;10851101;26;20047;-71
2024/04/12 01:30:39;;;;;;;28.15;15.80;;;;;;;12.36;100.00;102898.31;10809052;26;20100;-71
2024/04/12 01:35:36;;;;;;;26.10;16.13;;;;;;;12.40;100.00;102893.94;10789772;26;20136;-71
2024/04/12 01:40:36;;;;;;;25.35;13.70;;;;;;;12.43;100.00;102887.88;10803049;26;20041;-71
2024/04/12 01:45:33;;;;;;;26.83;14.98;;;;;;;12.47;100.00;102881.88;10845330;26;20030;-70
2024/04/12 01:50:31;;;;;;;34.70;16.80;;;;;;;12.54;100.00;102882.38;10791661;26;20016;-70
2024/04/12 01:55:32;;;;;;;26.17;15.48;;;;;;;12.47;100.00;102881.88;10800023;26;20349;-71
2024/04/12 02:00:32;;;;;;;27.55;18.60;;;;;;;12.55;100.00;102881.28;10845033;26;19997;-71
2024/04/12 02:05:29;;;;;;;37.05;20.17;;;;;;;12.57;100.00;102876.34;10790966;26;20006;-71
2024/04/12 02:10:26;;;;;;;33.67;20.85;;;;;;;12.63;100.00;102891.69;10774205;26;20013;-71
2024/04/12 02:15:27;;;;;;;36.13;22.10;;;;;;;12.58;100.00;102878.00;10852041;26;20006;-71
2024/04/12 02:20:33;;;;;;;31.40;21.88;;;;;;;12.60;100.00;102881.25;10768684;26;20007;-72
2024/04/12 02:25:35;;;;;;;37.25;22.52;;;;;;;12.58;100.00;102867.84;10791638;26;20079;-72
2024/04/12 02:30:32;;;;;;;35.33;22.85;;;;;;;12.59;100.00;102863.97;10838014;26;20392;-71
2024/04/12 02:35:30;;;;;;;42.22;24.42;;;;;;;12.58;100.00;102856.03;10771149;26;20009;-70
2024/04/12 02:40:27;;;;;;;39.17;23.33;;;;;;;12.59;100.00;102857.66;10766624;26;20056;-71
2024/04/12 02:45:27;;;;;;;35.20;22.38;;;;;;;12.62;100.00;102851.63;10795207;26;20490;-71
2024/04/12 02:50:25;;;;;;;34.97;22.42;;;;;;;12.63;100.00;102853.28;10809039;26;20016;-70
2024/04/12 02:55:30;;;;;;;41.60;21.50;;;;;;;12.61;100.00;102858.22;10797783;26;20110;-69
2024/04/12 03:00:39;;;;;;;31.25;20.10;;;;;;;12.62;100.00;102846.13;10800762;26;20020;-69
2024/04/12 03:05:40;;;;;;;31.60;19.98;;;;;;;12.62;100.00;102848.88;10856393;26;20342;-71
2024/04/12 03:10:43;;;;;;;29.38;18.90;;;;;;;12.69;100.00;102841.16;10865836;26;20024;-69
2024/04/12 03:15:42;;;;;;;29.77;18.38;;;;;;;12.62;100.00;102838.75;10859734;26;20071;-69
2024/04/12 03:20:39;;;;;;;28.58;18.42;;;;;;;12.69;100.00;102852.13;10845633;26;20336;-70
2024/04/12 03:25:39;;;;;;;25.45;17.35;;;;;;;12.63;100.00;102847.78;10862833;26;20015;-70
2024/04/12 03:30:40;;;;;;;22.90;16.25;;;;;;;12.63;100.00;102848.59;10863659;26;20078;-70
2024/04/12 03:35:37;;;;;;;26.50;16.67;;;;;;;12.63;100.00;102845.03;10842869;26;20037;-69
2024/04/12 03:40:35;;;;;;;24.98;15.98;;;;;;;12.61;100.00;102844.50;10862226;26;21059;-70
2024/04/12 03:45:35;;;;;;;27.60;17.23;;;;;;;12.56;100.00;102830.81;10840524;26;20045;-70
2024/04/12 03:50:32;;;;;;;26.92;16.85;;;;;;;12.55;100.00;102823.66;10809568;26;20012;-70
2024/04/12 03:55:29;;;;;;;25.77;16.75;;;;;;;12.52;100.00;102813.25;10845848;26;20018;-70
2024/04/12 04:00:27;;;;;;;27.30;17.00;;;;;;;12.51;100.00;102811.59;10789966;26;20414;-69
2024/04/12 04:05:25;;;;;;;29.20;16.50;;;;;;;12.55;100.00;102807.19;10785834;26;20028;-70
2024/04/12 04:10:25;;;;;;;27.05;16.90;;;;;;;12.39;100.00;102804.50;10860653;26;20013;-70
2024/04/12 04:15:25;;;;;;;28.98;17.15;;;;;;;12.38;100.00;102802.03;10792434;26;20068;-71
2024/04/12 04:20:27;;;;;;;30.35;17.70;;;;;;;12.30;100.00;102795.22;10851021;26;20013;-72
2024/04/12 04:25:24;;;;;;;30.50;17.45;;;;;;;12.28;100.00;102780.94;10843312;26;20484;-72
2024/04/12 04:30:25;;;;;;;32.55;18.48;;;;;;;12.27;100.00;102778.47;10852728;26;20094;-72
2024/04/12 04:35:27;;;;;;;34.27;18.07;;;;;;;12.21;100.00;102777.69;10796921;26;20457;-73
2024/04/12 04:40:25;;;;;;;35.47;18.00;;;;;;;12.20;100.00;102765.06;10790365;26;20008;-73
2024/04/12 04:45:22;;;;;;;32.95;17.27;;;;;;;12.18;100.00;102764.50;10830426;26;20037;-75
2024/04/12 04:50:20;;;;;;;31.27;19.38;;;;;;;12.24;100.00;102763.41;10770446;26;20001;-74
2024/04/12 04:55:18;;;;;;;33.92;19.50;;;;;;;12.24;100.00;102757.09;10841589;26;20016;-73
2024/04/12 05:00:19;;;;;;;30.80;18.80;;;;;;;12.26;100.00;102750.25;10777475;26;20013;-72
2024/04/12 05:05:41;;;;;;;34.70;19.85;;;;;;;12.20;100.00;102740.38;10781259;26;20009;-73
2024/04/12 05:10:35;;;;;;;36.78;20.92;;;;;;;12.21;100.00;102725.59;10796613;26;20016;-74
2024/04/12 05:20:40;;;;;;;37.15;20.50;;;;;;;12.22;100.00;102705.28;10778542;26;20016;-71
2024/04/12 05:25:51;;;;;;;30.60;19.52;;;;;;;12.21;100.00;102703.63;10766441;26;20537;-72
2024/04/12 05:30:49;;;;;;;36.20;19.80;;;;;;;12.24;100.00;102708.56;10771718;26;20443;-73
2024/04/12 05:35:48;;;;;;;39.30;19.70;;;;;;;12.17;100.00;102691.59;10769037;26;20021;-73
2024/04/12 05:40:45;;;;;;;34.85;20.10;;;;;;;12.23;100.00;102684.16;10788564;26;20363;-72
2024/04/12 05:45:49;;;;;;;38.33;21.63;;;;;;;12.22;100.00;102677.84;10794470;26;20435;-74
2024/04/12 05:50:48;;;;;;;35.95;21.05;;;;;;;12.22;100.00;102686.06;10848886;26;20023;-74
2024/04/12 05:55:45;;;;;;;36.55;21.08;;;;;;;12.26;100.00;102689.91;10786130;26;20017;-75
2024/04/12 06:00:42;;;;;;;37.42;20.85;;;;;;;12.33;100.00;102679.44;10870501;26;20013;-73
2024/04/12 06:05:59;;;;;;;35.78;20.60;;;;;;;12.41;100.00;102680.75;10867615;26;20008;-74
2024/04/12 06:10:56;;;;;;;35.65;20.25;;;;;;;12.46;100.00;102678.00;10833143;26;20009;-74
2024/04/12 06:15:54;;;;;;;32.85;20.38;;;;;;;12.53;100.00;102685.91;10847426;26;20020;-73
2024/04/12 06:20:52;;;;;;;31.63;18.02;;;;;;;12.58;100.00;102705.13;10837085;26;20545;-74
2024/04/12 06:25:50;;;;;;;33.42;19.35;;;;;;;12.59;100.00;102704.00;10835223;26;20091;-75
2024/04/12 06:30:50;;;;;;;27.15;17.92;;;;;;;12.63;100.00;102718.81;10835561;26;20045;-74
2024/04/12 06:35:49;;;;;;;29.67;17.70;;;;;;;12.65;100.00;102727.56;10829870;26;20008;-72
2024/04/12 06:40:53;;;;;;;29.70;17.15;;;;;;;12.72;100.00;102739.06;10847592;26;20001;-72
2024/04/12 06:46:13;;;;;;;33.47;17.52;;;;;;;12.69;100.00;102736.03;10836657;26;20020;-72
2024/04/12 06:51:11;;;;;;;30.48;17.63;;;;;;;12.60;100.00;102733.06;10838328;26;20435;-73
2024/04/12 06:56:15;;;;;;;30.45;17.38;;;;;;;12.58;100.00;102732.56;10839752;26;20005;-72
2024/04/12 07:01:13;;;;;;;30.25;17.13;;;;;;;12.67;100.00;102728.13;10855245;26;20048;-72
2024/04/12 07:06:14;;;;;;;28.40;16.23;;;;;;;12.76;100.00;102720.91;10810413;26;20009;-72
2024/04/12 07:11:14;;;;;;;27.67;16.58;;;;;;;12.84;100.00;102717.56;10853491;26;20344;-72
2024/04/12 07:16:12;;;;;;;31.27;17.58;;;;;;;13.02;100.00;102729.00;10848687;26;20020;-73
2024/04/12 07:21:15;;;;;;;34.33;15.95;;;;;;;13.09;100.00;102735.00;10837926;26;20001;-73
2024/04/12 07:26:24;;;;;;;26.27;15.68;;;;;;;13.11;100.00;102748.41;10841602;26;20001;-73
2024/04/12 07:31:24;;;;;;;25.40;14.45;;;;;;;13.07;100.00;102767.41;10839282;26;20698;-73
2024/04/12 07:36:21;;;;;;;21.75;15.00;;;;;;;13.13;100.00;102776.41;10857248;26;20045;-72
2024/04/12 07:41:18;;;;;;;26.58;15.05;;;;;;;13.15;100.00;102772.28;10853285;26;20502;-72
2024/04/12 07:46:17;;;;;;;22.52;14.45;;;;;;;13.25;100.00;102768.63;10845570;26;20547;-73
2024/04/12 07:51:20;;;;;;;24.75;16.00;;;;;;;13.34;100.00;102774.38;10846292;26;20002;-73
2024/04/12 07:56:20;;;;;;;24.17;15.32;;;;;;;13.54;100.00;102759.66;10800720;26;20476;-73
2024/04/12 08:01:19;;;;;;;18.92;13.43;;;;;;;13.71;100.00;102756.47;10826973;26;20029;-72
2024/04/12 08:06:19;;;;;;;19.85;12.25;;;;;;;13.58;100.00;102775.28;10793891;26;20452;-73
2024/04/12 08:11:35;;;;;;;23.38;13.73;;;;;;;13.65;100.00;102777.69;10821914;26;20350;-72
2024/04/12 08:16:37;;;;;;;18.10;12.90;;;;;;;13.76;100.00;102761.91;10789072;26;20349;-73
2024/04/12 08:21:37;;;;;;;20.15;12.52;;;;;;;13.73;100.00;102766.06;10798176;26;20002;-72
2024/04/12 08:26:35;;;;;;;17.67;12.43;;;;;;;13.79;100.00;102753.13;10799983;26;20005;-73
2024/04/12 08:31:33;;;;;;;16.88;11.23;;;;;;;13.83;100.00;102767.91;10834919;26;20037;-73
2024/04/12 08:36:33;;;;;;;17.83;11.55;;;;;;;13.86;100.00;102761.84;10793485;26;20099;-72
2024/04/12 08:41:31;;;;;;;14.88;11.25;;;;;;;13.94;100.00;102755.69;10828067;26;20486;-72
2024/04/12 08:46:33;;;;;;;16.02;10.80;;;;;;;13.96;100.00;102764.47;10795626;26;20005;-72
2024/04/12 08:51:34;;;;;;;13.95;10.82;;;;;;;13.93;100.00;102753.25;10785585;26;20471;-72
2024/04/12 08:56:31;;;;;;;13.93;10.93;;;;;;;13.95;100.00;102762.84;10824823;26;20076;-72
2024/04/12 09:01:31;;;;;;;14.88;10.65;;;;;;;14.01;100.00;102761.66;10781985;26;20018;-73
2024/04/12 09:06:28;;;;;;;15.50;10.95;;;;;;;13.93;100.00;102759.56;10814005;26;20078;-72
2024/04/12 09:11:25;;;;;;;14.07;11.10;;;;;;;14.02;100.00;102752.31;10835892;26;20010;-73
2024/04/12 09:16:23;;;;;;;12.82;10.02;;;;;;;14.16;100.00;102766.19;10803376;26;20091;-72
2024/04/12 09:21:24;;;;;;;18.42;11.18;;;;;;;14.31;100.00;102770.69;10842244;26;20005;-73
2024/04/12 09:26:24;;;;;;;11.73;9.52;;;;;;;14.27;100.00;102775.13;10776374;26;20006;-74
2024/04/12 09:36:56;;;;;;;13.95;10.60;;;;;;;14.32;100.00;102777.84;10810715;26;20020;-72
2024/04/12 09:41:56;;;;;;;14.63;10.65;;;;;;;14.20;100.00;102774.66;10803058;26;20014;-72
2024/04/12 10:40:09;;;;;;;13.18;11.50;;;;;;;14.31;100.00;102737.66;10780817;26;20030;-74
2024/04/12 10:45:14;;;;;;;17.83;11.73;;;;;;;14.34;100.00;102739.00;10775075;26;20020;-74
2024/04/12 10:50:13;;;;;;;14.80;10.13;;;;;;;14.15;100.00;102760.97;10841233;26;20083;-74
2024/04/12 10:55:11;;;;;;;16.58;11.13;;;;;;;14.20;100.00;102736.16;10785918;26;20572;-74
2024/04/12 11:00:14;;;;;;;15.20;13.13;;;;;;;14.08;100.00;102753.88;10768428;26;20002;-73
2024/04/12 11:10:38;;;;;;;14.00;11.73;;;;;;;14.20;100.00;102730.66;10840007;26;20036;-72
2024/04/12 11:31:14;;;;;;;14.98;10.38;;;;;;;14.97;100.00;102710.34;10787371;26;20084;-72
2024/04/12 11:36:19;;;;;;;12.85;11.48;;;;;;;15.29;100.00;102696.63;10856563;26;20013;-73
2024/04/12 11:41:23;;;;;;;12.57;11.10;;;;;;;15.67;100.00;102690.97;10834743;26;20062;-72
2024/04/12 11:46:23;;;;;;;13.70;11.32;;;;;;;15.73;100.00;102692.56;10797971;26;20059;-73
2024/04/12 11:51:21;;;;;;;13.35;12.13;;;;;;;15.68;100.00;102698.13;10840237;26;19998;-73
2024/04/12 11:56:21;;;;;;;14.38;12.20;;;;;;;15.59;100.00;102680.63;10770060;26;20466;-72
2024/04/12 12:01:19;;;;;;;14.25;12.43;;;;;;;15.83;100.00;102663.97;10784782;26;20021;-72
2024/04/12 12:06:16;;;;;;;15.75;11.40;;;;;;;16.23;100.00;102660.66;10789729;26;20043;-73
2024/04/12 12:11:13;;;;;;;14.52;11.50;;;;;;;16.27;100.00;102678.22;10799243;26;20023;-72
2024/04/12 12:16:14;;;;;;;13.88;11.38;;;;;;;16.34;100.00;102664.84;10864265;26;20002;-71
2024/04/12 12:21:14;;;;;;;13.27;11.88;;;;;;;16.65;100.00;102675.19;10842916;26;20016;-71
2024/04/12 12:26:14;;;;;;;13.00;11.40;;;;;;;16.63;100.00;102673.53;10859564;26;20015;-74
2024/04/12 12:31:15;;;;;;;16.07;12.50;;;;;;;16.73;100.00;102666.13;10848060;26;20073;-71
2024/04/12 12:36:12;;;;;;;13.63;11.25;;;;;;;16.77;100.00;102650.56;10843965;26;20009;-71
2024/04/12 12:41:10;;;;;;;13.23;10.88;;;;;;;17.07;100.00;102653.75;10849146;26;20336;-71
2024/04/12 12:46:07;;;;;;;12.32;11.07;;;;;;;17.21;100.00;102621.31;10860731;26;20067;-71
2024/04/12 12:51:05;;;;;;;11.60;10.55;;;;;;;17.98;100.00;102633.03;10854170;26;20000;-70
2024/04/12 12:56:02;;;;;;;10.98;9.95;;;;;;;18.17;100.00;102608.66;10853561;26;20441;-70
2024/04/12 13:01:02;;;;;;;10.55;9.48;;;;;;;18.05;100.00;102622.31;10870387;26;20015;-71
2024/04/12 13:06:06;;;;;;;12.40;11.20;;;;;;;18.41;100.00;102604.59;10846277;26;20016;-70
2024/04/12 13:11:08;;;;;;;11.70;10.40;;;;;;;18.77;100.00;102601.50;10844189;26;20005;-74
2024/04/12 13:16:11;;;;;;;12.40;11.10;;;;;;;18.29;100.00;102589.44;10842814;26;20001;-72
2024/04/12 13:21:10;;;;;;;11.65;10.45;;;;;;;20.05;100.00;102591.38;10840190;26;20009;-70
2024/04/12 13:26:09;;;;;;;15.27;10.13;;;;;;;19.99;100.00;102575.25;10844531;26;20006;-71
2024/04/12 13:31:06;;;;;;;11.85;10.10;;;;;;;21.12;100.00;102561.13;10850365;26;20005;-68
2024/04/12 13:36:10;;;;;;;13.13;10.75;;;;;;;21.16;100.00;102564.81;10851432;26;20004;-71
2024/04/12 13:41:10;;;;;;;15.88;12.90;;;;;;;20.03;100.00;102570.63;10854718;26;20058;-71
2024/04/12 13:51:28;;;;;;;12.70;11.30;;;;;;;19.64;100.00;102553.25;10851569;26;20108;-72
2024/04/12 13:56:26;;;;;;;12.93;11.52;;;;;;;19.69;100.00;102553.06;10854159;26;20679;-72
2024/04/12 14:01:24;;;;;;;15.00;11.45;;;;;;;19.26;100.00;102559.63;10852139;26;20476;-72
2024/04/12 14:06:24;;;;;;;12.95;11.55;;;;;;;19.00;100.00;102554.19;10844705;26;20076;-73
2024/04/12 14:11:22;;;;;;;13.02;11.82;;;;;;;18.85;100.00;102534.16;10853850;26;20550;-73
2024/04/12 14:16:28;;;;;;;14.27;11.45;;;;;;;18.67;100.00;102538.91;10853375;26;21929;-72
2024/04/12 14:21:29;;;;;;;13.07;11.80;;;;;;;18.80;100.00;102536.28;10853163;26;20008;-72
2024/04/12 14:26:26;;;;;;;14.30;12.02;;;;;;;18.62;100.00;102525.22;10858286;26;20000;-72
2024/04/12 14:31:26;;;;;;;13.23;12.02;;;;;;;18.65;100.00;102519.03;10820535;26;20032;-72
2024/04/12 14:36:24;;;;;;;13.07;11.80;;;;;;;18.79;100.00;102512.50;10834891;26;20013;-72
2024/04/12 14:41:21;;;;;;;14.05;12.30;;;;;;;19.30;100.00;102516.22;10838162;26;20619;-72
2024/04/12 14:46:20;;;;;;;18.45;14.25;;;;;;;19.16;100.00;102499.00;10840915;26;20020;-72
2024/04/12 14:51:17;;;;;;;15.93;13.02;;;;;;;18.95;100.00;102488.66;10838618;26;20081;-72
2024/04/12 14:56:16;;;;;;;13.85;11.70;;;;;;;19.06;100.00;102484.38;10855163;26;20254;-72
2024/04/12 15:01:13;;;;;;;16.08;12.00;;;;;;;19.16;100.00;102488.72;10864243;26;20080;-72
2024/04/12 15:48:25;;;;;;;20.88;11.32;;;;;;;17.31;100.00;102493.84;10856726;26;20662;-71
2024/04/12 15:53:25;;;;;;;22.00;11.68;;;;;;;17.30;100.00;102497.78;10861456;26;20005;-72
2024/04/12 16:14:19;;;;;;;20.92;10.90;;;;;;;18.05;100.00;102489.44;10780509;26;20350;-73
2024/04/12 16:19:16;;;;;;;23.33;12.45;;;;;;;17.82;100.00;102489.63;10773852;26;20028;-73
2024/04/12 16:24:13;;;;;;;20.88;12.73;;;;;;;16.98;100.00;102485.13;10837306;26;20020;-71
2024/04/12 16:29:11;;;;;;;26.05;11.73;;;;;;;16.67;100.00;102485.13;10856267;26;20001;-71
2024/04/12 16:34:09;;;;;;;19.38;11.27;;;;;;;16.59;100.00;102493.03;10856911;26;20105;-73
2024/04/12 16:39:06;;;;;;;16.45;11.13;;;;;;;17.11;100.00;102484.22;10852175;26;20048;-73
2024/04/12 16:44:03;;;;;;;19.48;11.65;;;;;;;16.47;100.00;102492.78;10855325;26;20009;-73
2024/04/12 16:49:04;;;;;;;20.65;12.40;;;;;;;16.35;100.00;102489.78;10849743;26;20005;-73
2024/04/12 16:54:01;;;;;;;18.05;11.85;;;;;;;16.43;100.00;102486.28;10850856;26;20693;-73
2024/04/12 16:58:59;;;;;;;17.23;12.25;;;;;;;15.71;100.00;102499.00;10793156;26;20781;-73
2024/04/12 17:04:00;;;;;;;24.00;12.77;;;;;;;15.42;100.00;102498.50;10833250;26;20013;-74
2024/04/12 17:08:58;;;;;;;21.27;12.43;;;;;;;15.23;100.00;102504.94;10821913;26;20005;-72
2024/04/12 17:13:55;;;;;;;21.33;13.65;;;;;;;14.94;100.00;102502.44;10837374;26;20005;-72
2024/04/12 17:18:52;;;;;;;18.52;12.32;;;;;;;15.04;100.00;102495.94;10844688;26;20001;-73
2024/04/12 17:23:49;;;;;;;22.55;12.02;;;;;;;14.82;100.00;102508.44;10816527;26;19997;-72
2024/04/12 17:28:48;;;;;;;27.50;13.23;;;;;;;14.74;100.00;102509.16;10841246;26;20005;-72
2024/04/12 17:33:46;;;;;;;24.85;12.75;;;;;;;14.78;100.00;102509.34;10817568;26;20020;-71
2024/04/12 17:38:43;;;;;;;22.30;13.13;;;;;;;14.47;100.00;102504.34;10802288;26;20023;-72
2024/04/12 17:43:40;;;;;;;19.13;12.45;;;;;;;14.59;100.00;102501.97;10830477;26;20013;-71
2024/04/12 17:48:37;;;;;;;28.02;13.55;;;;;;;14.39;100.00;102503.13;10831882;26;20001;-72
2024/04/12 17:53:34;;;;;;;21.35;12.52;;;;;;;14.20;100.00;102499.56;10834404;26;20005;-72
2024/04/12 17:58:32;;;;;;;18.58;11.27;;;;;;;14.24;100.00;102508.84;10828844;26;20453;-71
2024/04/12 18:03:29;;;;;;;21.38;11.75;;;;;;;14.18;100.00;102510.03;10855291;26;20468;-72
2024/04/12 18:08:26;;;;;;;20.42;11.23;;;;;;;14.18;100.00;102501.78;10821043;26;20005;-71
2024/04/12 18:13:23;;;;;;;25.27;10.88;;;;;;;14.01;100.00;102508.63;10834523;26;20002;-71
2024/04/12 18:18:22;;;;;;;24.48;12.68;;;;;;;13.84;100.00;102502.84;10853313;26;20082;-72
2024/04/12 18:23:20;;;;;;;18.60;11.45;;;;;;;13.86;100.00;102500.63;10855706;26;20057;-72
2024/04/12 18:28:17;;;;;;;23.00;11.25;;;;;;;13.81;100.00;102503.44;10825960;26;20140;-71
2024/04/12 18:33:14;;;;;;;16.80;10.85;;;;;;;13.76;100.00;102511.75;10821488;26;20569;-72
2024/04/12 18:48:44;;;;;;;24.27;10.57;;;;;;;13.65;100.00;102527.56;10851906;26;20570;-71
2024/04/12 18:53:41;;;;;;;18.00;11.23;;;;;;;13.45;100.00;102534.13;10852204;26;20445;-72
2024/04/12 18:58:38;;;;;;;22.17;11.10;;;;;;;13.45;100.00;102545.13;10831238;26;20031;-72
2024/04/12 19:03:35;;;;;;;21.85;12.23;;;;;;;13.49;100.00;102546.19;10840109;26;20001;-72
2024/04/12 19:08:33;;;;;;;23.50;11.38;;;;;;;13.45;100.00;102545.13;10843072;26;20539;-71
2024/04/12 19:13:30;;;;;;;21.98;12.18;;;;;;;13.29;100.00;102546.41;10852577;26;20009;-71
2024/04/12 19:18:27;;;;;;;25.20;11.75;;;;;;;13.04;100.00;102553.75;10853160;26;20356;-71
2024/04/12 19:23:24;;;;;;;27.17;11.77;;;;;;;12.88;100.00;102557.75;10845554;26;20001;-71
2024/04/12 19:28:21;;;;;;;27.48;12.05;;;;;;;12.92;100.00;102559.63;10843460;26;20489;-71
2024/04/12 19:33:19;;;;;;;26.23;12.40;;;;;;;13.02;100.00;102565.06;10837905;26;20349;-71
2024/04/12 19:38:17;;;;;;;26.90;11.18;;;;;;;12.91;100.00;102569.00;10849617;26;20024;-71
2024/04/12 19:43:14;;;;;;;26.65;11.80;;;;;;;12.70;100.00;102582.06;10847790;26;20005;-71
2024/04/12 19:48:12;;;;;;;20.88;11.48;;;;;;;12.47;100.00;102585.56;10832566;26;20491;-72
2024/04/12 19:53:11;;;;;;;27.63;11.63;;;;;;;12.41;100.00;102577.34;10855531;26;20009;-71
2024/04/12 19:58:08;;;;;;;21.55;9.68;;;;;;;12.48;100.00;102576.19;10841807;26;20375;-72
2024/04/12 20:03:05;;;;;;;32.83;12.43;;;;;;;12.41;100.00;102569.09;10866710;26;20001;-71
2024/04/12 20:08:03;;;;;;;23.25;11.75;;;;;;;12.20;100.00;102565.69;10831915;26;20001;-71
2024/04/12 20:13:00;;;;;;;18.00;10.18;;;;;;;12.27;100.00;102559.88;10844003;26;20012;-70
2024/04/12 20:17:57;;;;;;;26.92;13.32;;;;;;;12.16;100.00;102552.81;10853300;26;20017;-72
2024/04/12 20:22:55;;;;;;;20.92;10.25;;;;;;;12.03;100.00;102559.75;10760875;26;19998;-70
2024/04/12 20:27:52;;;;;;;25.15;10.98;;;;;;;12.07;100.00;102554.50;10813650;26;20076;-75
2024/04/12 20:32:51;;;;;;;21.65;10.45;;;;;;;12.20;100.00;102551.16;10821794;26;20743;-76
2024/04/12 20:37:48;;;;;;;28.20;10.10;;;;;;;11.92;100.00;102558.16;10793793;26;20102;-71
2024/04/12 20:42:45;;;;;;;24.45;11.48;;;;;;;12.02;100.00;102549.06;10747388;26;20501;-69
2024/04/12 20:47:43;;;;;;;22.60;12.10;;;;;;;12.06;100.00;102552.88;10776721;26;20005;-70
2024/04/12 20:52:40;;;;;;;25.77;10.60;;;;;;;11.94;100.00;102548.56;10768309;26;20005;-71
2024/04/12 20:57:37;;;;;;;21.95;10.60;;;;;;;11.78;100.00;102546.97;10769253;26;20517;-70
2024/04/12 21:02:34;;;;;;;19.40;10.35;;;;;;;11.76;100.00;102549.16;10781972;26;20083;-70
2024/04/12 21:07:31;;;;;;;22.58;11.50;;;;;;;11.74;100.00;102534.91;10793214;26;20117;-71
2024/04/12 21:12:28;;;;;;;25.65;11.65;;;;;;;11.87;100.00;102544.47;10813069;26;20407;-72
2024/04/12 21:17:26;;;;;;;28.52;13.18;;;;;;;11.59;100.00;102533.09;10824647;26;20016;-71
2024/04/12 21:22:23;;;;;;;19.60;10.88;;;;;;;11.74;100.00;102527.53;10780511;26;20016;-71
2024/04/12 21:27:23;;;;;;;19.20;11.65;;;;;;;11.63;100.00;102534.16;10805794;26;20017;-70
2024/04/12 21:32:22;;;;;;;20.33;11.05;;;;;;;11.59;100.00;102530.34;10814558;26;20786;-72
2024/04/12 21:37:19;;;;;;;18.75;10.50;;;;;;;11.49;100.00;102528.47;10808124;26;20085;-72
2024/04/12 21:42:16;;;;;;;21.83;11.40;;;;;;;11.32;100.00;102522.50;10823128;26;20005;-73
2024/04/12 21:47:13;;;;;;;21.23;12.45;;;;;;;11.24;100.00;102520.34;10775263;26;20029;-73
2024/04/12 21:52:10;;;;;;;26.48;13.05;;;;;;;11.15;100.00;102517.34;10764658;26;20012;-71
2024/04/12 21:57:07;;;;;;;28.02;12.10;;;;;;;11.03;100.00;102525.84;10814115;26;20033;-72
2024/04/12 22:02:07;;;;;;;21.55;12.65;;;;;;;10.89;100.00;102524.78;10804754;26;20091;-71
2024/04/12 22:07:04;;;;;;;24.73;11.27;;;;;;;10.91;100.00;102522.59;10820809;26;20048;-71
2024/04/12 22:12:02;;;;;;;30.17;14.15;;;;;;;10.77;100.00;102522.34;10822394;26;20363;-70
2024/04/12 22:16:59;;;;;;;29.40;12.18;;;;;;;10.95;100.00;102512.72;10767593;26;20002;-71
2024/04/12 22:21:57;;;;;;;23.60;11.50;;;;;;;11.03;100.00;102498.47;10782008;26;20483;-70
2024/04/12 22:26:55;;;;;;;21.00;11.55;;;;;;;11.01;100.00;102499.88;10766010;26;20014;-70
2024/04/12 22:31:53;;;;;;;29.75;11.45;;;;;;;11.11;100.00;102500.63;10803255;26;20017;-70
2024/04/12 22:36:50;;;;;;;30.92;12.73;;;;;;;11.01;100.00;102499.88;10790847;26;20096;-72
2024/04/12 22:41:48;;;;;;;23.23;11.23;;;;;;;11.13;100.00;102490.22;10810466;26;20036;-72
2024/04/12 22:46:47;;;;;;;23.42;12.70;;;;;;;11.20;100.00;102480.91;10857310;26;20470;-71
2024/04/12 22:51:44;;;;;;;22.00;11.25;;;;;;;11.04;100.00;102478.22;10857644;26;20015;-74
2024/04/12 22:56:42;;;;;;;25.33;12.90;;;;;;;10.96;100.00;102476.06;10848341;26;20424;-73
2024/04/12 23:01:39;;;;;;;28.33;12.13;;;;;;;10.89;100.00;102464.59;10862984;26;20016;-71
2024/04/12 23:06:36;;;;;;;25.20;12.23;;;;;;;10.83;100.00;102462.94;10838454;26;20456;-72
2024/04/12 23:11:34;;;;;;;23.65;13.75;;;;;;;10.71;100.00;102464.06;10838347;26;20446;-70
2024/04/12 23:16:31;;;;;;;22.05;12.80;;;;;;;10.63;100.00;102467.38;10852739;26;20012;-71
2024/04/12 23:21:29;;;;;;;28.48;12.63;;;;;;;10.50;100.00;102462.44;10873865;26;20056;-71
2024/04/12 23:26:26;;;;;;;23.40;12.18;;;;;;;10.52;100.00;102439.19;10863439;26;20016;-70
2024/04/12 23:31:23;;;;;;;18.95;11.15;;;;;;;10.46;100.00;102428.53;10860158;26;20005;-72
2024/04/12 23:36:20;;;;;;;25.45;12.68;;;;;;;10.38;100.00;102429.09;10849655;26;20009;-71
2024/04/12 23:41:18;;;;;;;24.05;12.82;;;;;;;10.47;100.00;102435.66;10861534;26;20016;-71
2024/04/12 23:46:15;;;;;;;26.65;12.65;;;;;;;10.45;100.00;102421.44;10849256;26;20024;-72
2024/04/12 23:51:13;;;;;;;24.85;13.05;;;;;;;10.52;100.00;102424.72;10871661;26;20005;-72
2024/04/12 23:56:10;;;;;;;19.38;10.82;;;;;;;10.65;100.00;102415.94;10846251;26;20074;-73
